createdAt,value
2019-05-16T00:02:22.058Z,98015.95
2019-05-16T00:04:53.940Z,98004.75
2019-05-16T00:07:28.244Z,98007.15
2019-05-16T00:09:59.460Z,98018.87
2019-05-16T00:12:31.523Z,98027.80
2019-05-16T00:15:03.555Z,98027.14
2019-05-16T00:17:38.286Z,98033.98
2019-05-16T00:20:10.225Z,98036.20
2019-05-16T00:22:41.974Z,98030.20
2019-05-16T00:25:13.962Z,98031.94
2019-05-16T00:27:47.739Z,98030.66
2019-05-16T00:30:19.182Z,98031.41
2019-05-16T00:32:50.954Z,98030.20
2019-05-16T00:35:22.947Z,98027.27
2019-05-16T00:37:55.585Z,98019.83
2019-05-16T00:40:28.396Z,98022.27
2019-05-16T00:43:00.718Z,98033.20
2019-05-16T00:45:32.750Z,98025.89
2019-05-16T00:48:04.395Z,98028.16
2019-05-16T00:50:36.292Z,98024.92
2019-05-16T00:53:09.106Z,98029.29
2019-05-16T00:55:41.795Z,98019.64
2019-05-16T00:58:15.461Z,98022.00
2019-05-16T01:00:49.857Z,98017.69
2019-05-16T01:03:22.481Z,98028.05
2019-05-16T01:05:54.928Z,98022.91
2019-05-16T01:08:28.156Z,98026.80
2019-05-16T01:11:00.495Z,98015.50
2019-05-16T01:13:33.998Z,98016.47
2019-05-16T01:16:08.397Z,98014.82
2019-05-16T01:18:40.304Z,98009.37
2019-05-16T01:21:13.038Z,98003.66
2019-05-16T01:23:44.766Z,97999.91
2019-05-16T01:26:18.644Z,97995.56
2019-05-16T01:28:52.048Z,97997.73
2019-05-16T01:31:23.897Z,97995.81
2019-05-16T01:33:55.510Z,97993.41
2019-05-16T01:36:36.650Z,97995.38
2019-05-16T01:39:00.869Z,97989.73
2019-05-16T01:41:32.848Z,97990.22
2019-05-16T01:44:04.955Z,97994.94
2019-05-16T01:46:39.129Z,97988.95
2019-05-16T01:49:11.974Z,97986.66
2019-05-16T01:51:43.639Z,97982.70
2019-05-16T01:54:17.876Z,97993.08
2019-05-16T01:56:48.908Z,97977.56
2019-05-16T01:59:20.725Z,97976.77
2019-05-16T02:01:53.649Z,97991.33
2019-05-16T02:04:25.862Z,97988.33
2019-05-16T02:06:58.451Z,97991.42
2019-05-16T02:09:30.394Z,97991.42
2019-05-16T02:12:02.296Z,97994.81
2019-05-16T02:14:35.826Z,97992.16
2019-05-16T02:17:08.677Z,97999.30
2019-05-16T02:19:41.475Z,97991.58
2019-05-16T02:22:14.933Z,97985.43
2019-05-16T02:24:47.968Z,97984.16
2019-05-16T02:27:20.148Z,97979.35
2019-05-16T02:29:51.659Z,97978.56
2019-05-16T02:32:24.591Z,97988.89
2019-05-16T02:35:01.315Z,97979.47
2019-05-16T02:37:34.818Z,97981.16
2019-05-16T02:40:07.519Z,97982.52
2019-05-16T02:42:42.056Z,97983.13
2019-05-16T02:45:14.951Z,97991.27
2019-05-16T02:47:46.520Z,97994.27
2019-05-16T02:50:21.917Z,97992.92
2019-05-16T02:52:52.198Z,97993.45
2019-05-16T02:55:23.754Z,97997.31
2019-05-16T02:57:55.472Z,97991.31
2019-05-16T03:00:36.414Z,98000.81
2019-05-16T03:03:08.050Z,97999.91
2019-05-16T03:05:41.878Z,97995.66
2019-05-16T03:08:14.237Z,98000.55
2019-05-16T03:10:46.758Z,98000.06
2019-05-16T03:13:21.993Z,97998.22
2019-05-16T03:15:52.721Z,98001.49
2019-05-16T03:18:26.270Z,98000.70
2019-05-16T03:21:01.457Z,98004.53
2019-05-16T03:23:34.519Z,98006.45
2019-05-16T03:26:06.291Z,98012.12
2019-05-16T03:28:41.082Z,98015.39
2019-05-16T03:31:15.052Z,98015.95
2019-05-16T03:33:52.452Z,98010.80
2019-05-16T03:36:24.297Z,98011.67
2019-05-16T03:38:52.273Z,98014.34
2019-05-16T03:41:25.524Z,98015.09
2019-05-16T03:43:57.541Z,98011.67
2019-05-16T03:46:30.954Z,98017.61
2019-05-16T03:49:02.909Z,98017.61
2019-05-16T03:51:34.407Z,98014.94
2019-05-16T03:54:06.351Z,98014.94
2019-05-16T03:56:40.581Z,98015.09
2019-05-16T03:59:12.966Z,98019.00
2019-05-16T04:01:44.653Z,98024.70
2019-05-16T04:04:16.565Z,98026.33
2019-05-16T04:06:50.714Z,98025.80
2019-05-16T04:09:21.926Z,98028.77
2019-05-16T04:11:53.673Z,98030.91
2019-05-16T04:14:25.962Z,98035.45
2019-05-16T04:17:01.594Z,98034.89
2019-05-16T04:19:33.811Z,98035.87
2019-05-16T04:22:10.562Z,98039.77
2019-05-16T04:24:42.325Z,98038.34
2019-05-16T04:27:14.051Z,98041.05
2019-05-16T04:29:46.536Z,98040.70
2019-05-16T04:32:20.880Z,98046.86
2019-05-16T04:34:51.755Z,98045.44
2019-05-16T04:37:26.186Z,98052.50
2019-05-16T04:39:57.254Z,98051.93
2019-05-16T04:42:31.125Z,98056.94
2019-05-16T04:45:02.188Z,98064.00
2019-05-16T04:47:33.970Z,98060.70
2019-05-16T04:50:06.134Z,98060.17
2019-05-16T04:52:41.931Z,98054.73
2019-05-16T04:55:12.434Z,98060.44
2019-05-16T04:57:44.352Z,98058.13
2019-05-16T05:00:21.086Z,98045.31
2019-05-16T05:02:52.067Z,98050.23
2019-05-16T05:05:23.765Z,98048.78
2019-05-16T05:07:55.262Z,98052.71
2019-05-16T05:10:27.010Z,98044.05
2019-05-16T05:13:01.397Z,98043.00
2019-05-16T05:15:33.704Z,98045.15
2019-05-16T05:18:06.522Z,98051.61
2019-05-16T05:20:41.056Z,98051.38
2019-05-16T05:23:12.219Z,98053.83
2019-05-16T05:25:44.170Z,98051.98
2019-05-16T05:28:16.878Z,98055.94
2019-05-16T05:30:50.295Z,98059.05
2019-05-16T05:33:22.264Z,98049.05
2019-05-16T05:35:54.088Z,98052.24
2019-05-16T05:38:26.094Z,98053.93
2019-05-16T05:41:00.113Z,98059.08
2019-05-16T05:43:31.446Z,98067.47
2019-05-16T05:46:03.745Z,98070.55
2019-05-16T05:48:36.124Z,98074.41
2019-05-16T05:51:07.719Z,98077.12
2019-05-16T05:53:40.215Z,98080.53
2019-05-16T05:56:13.437Z,98084.29
2019-05-16T05:58:45.189Z,98074.95
2019-05-16T06:01:16.836Z,98090.17
2019-05-16T06:03:50.478Z,98088.19
2019-05-16T06:06:21.770Z,98085.39
2019-05-16T06:08:53.762Z,98090.67
2019-05-16T06:11:25.414Z,98096.84
2019-05-16T06:13:57.045Z,98102.59
2019-05-16T06:16:30.799Z,98099.71
2019-05-16T06:19:02.287Z,98103.25
2019-05-16T06:21:34.202Z,98108.85
2019-05-16T06:24:05.914Z,98116.87
2019-05-16T06:26:39.619Z,98105.05
2019-05-16T06:29:11.078Z,98112.26
2019-05-16T06:31:42.861Z,98112.36
2019-05-16T06:34:15.420Z,98112.63
2019-05-16T06:36:48.059Z,98112.56
2019-05-16T06:39:20.134Z,98113.71
2019-05-16T06:41:52.217Z,98109.30
2019-05-16T06:44:23.803Z,98112.41
2019-05-16T06:47:09.567Z,98114.19
2019-05-16T06:49:30.363Z,98116.64
2019-05-16T06:52:02.118Z,98119.76
2019-05-16T06:54:34.023Z,98125.79
2019-05-16T06:57:06.058Z,98116.08
2019-05-16T06:59:37.566Z,98119.98
2019-05-16T07:02:11.037Z,98120.90
2019-05-16T07:04:42.962Z,98123.39
2019-05-16T07:07:14.628Z,98121.04
2019-05-16T07:09:58.116Z,98121.77
2019-05-16T07:12:20.309Z,98120.34
2019-05-16T07:14:52.171Z,98125.86
2019-05-16T07:17:26.059Z,98136.02
2019-05-16T07:20:00.542Z,98132.80
2019-05-16T07:22:31.369Z,98131.27
2019-05-16T07:25:03.028Z,98129.74
2019-05-16T07:27:34.980Z,98131.14
2019-05-16T07:30:07.054Z,98133.06
2019-05-16T07:32:40.483Z,98116.58
2019-05-16T07:35:12.679Z,98120.59
2019-05-16T07:37:44.665Z,98109.45
2019-05-16T07:40:23.627Z,98102.65
2019-05-16T07:42:51.003Z,98101.50
2019-05-16T07:45:23.051Z,98096.63
2019-05-16T07:47:54.727Z,98096.70
2019-05-16T07:50:26.425Z,98101.22
2019-05-16T07:52:59.997Z,98099.12
2019-05-16T07:55:31.701Z,98102.98
2019-05-16T07:58:03.700Z,98105.79
2019-05-16T08:00:49.672Z,98102.87
2019-05-16T08:03:10.457Z,98102.47
2019-05-16T08:05:42.151Z,98103.50
2019-05-16T08:08:14.518Z,98104.20
2019-05-16T08:10:46.949Z,98103.61
2019-05-16T08:15:52.655Z,98104.98
2019-05-16T08:18:24.441Z,98094.72
2019-05-16T08:20:56.067Z,98100.95
2019-05-16T08:23:29.764Z,98098.83
2019-05-16T08:26:02.219Z,98098.05
2019-05-16T08:28:33.909Z,98097.20
2019-05-16T08:31:05.991Z,98102.14
2019-05-16T08:33:41.290Z,98103.58
2019-05-16T08:36:12.152Z,98106.72
2019-05-16T08:38:44.882Z,98102.04
2019-05-16T08:41:22.167Z,98109.96
2019-05-16T08:43:53.749Z,98108.37
2019-05-16T08:46:25.514Z,98105.69
2019-05-16T08:49:00.836Z,98111.13
2019-05-16T08:50:05.094Z,98103.37
2019-05-16T08:51:33.333Z,98108.69
2019-05-16T08:54:04.422Z,98111.17
2019-05-16T08:56:35.952Z,98110.89
2019-05-16T08:59:07.715Z,98096.43
2019-05-16T09:01:51.421Z,98094.55
2019-05-16T09:04:14.322Z,98096.17
2019-05-16T09:06:46.200Z,98091.80
2019-05-16T09:09:39.873Z,98093.17
2019-05-16T09:11:52.926Z,98089.34
2019-05-16T09:14:27.456Z,98094.27
2019-05-16T09:16:58.753Z,98089.91
2019-05-16T09:19:30.790Z,98087.98
2019-05-16T09:22:03.879Z,98085.25
2019-05-16T09:24:37.747Z,98084.12
2019-05-16T09:27:12.147Z,98093.27
2019-05-16T09:29:41.997Z,98093.80
2019-05-16T09:32:20.237Z,98091.46
2019-05-16T09:34:47.994Z,98093.91
2019-05-16T09:37:19.728Z,98085.92
2019-05-16T09:39:51.363Z,98083.17
2019-05-16T09:42:24.025Z,98085.97
2019-05-16T09:44:57.752Z,98087.24
2019-05-16T09:47:29.273Z,98080.76
2019-05-16T09:50:01.346Z,98078.95
2019-05-16T09:52:36.412Z,98080.05
2019-05-16T09:55:08.857Z,98081.44
2019-05-16T09:57:40.598Z,98077.79
2019-05-16T10:00:17.975Z,98076.83
2019-05-16T10:02:50.171Z,98078.24
2019-05-16T10:05:26.405Z,98076.66
2019-05-16T10:07:57.523Z,98076.66
2019-05-16T10:10:29.382Z,98085.14
2019-05-16T10:13:01.189Z,98077.10
2019-05-16T10:15:33.098Z,98068.97
2019-05-16T10:18:07.556Z,98072.41
2019-05-16T10:20:39.323Z,98071.14
2019-05-16T10:23:14.990Z,98069.02
2019-05-16T10:25:44.391Z,98067.63
2019-05-16T10:28:17.288Z,98065.83
2019-05-16T10:30:50.171Z,98066.69
2019-05-16T10:33:22.263Z,98069.55
2019-05-16T10:35:53.914Z,98065.48
2019-05-16T10:38:28.573Z,98071.08
2019-05-16T10:40:59.483Z,98061.72
2019-05-16T10:43:32.103Z,98073.26
2019-05-16T10:46:06.496Z,98073.19
2019-05-16T10:48:38.463Z,98071.55
2019-05-16T10:51:10.168Z,98066.64
2019-05-16T10:54:02.522Z,98061.12
2019-05-16T10:56:15.359Z,98068.45
2019-05-16T10:59:12.143Z,98058.83
2019-05-16T11:01:27.387Z,98057.61
2019-05-16T11:03:56.652Z,98063.75
2019-05-16T11:06:29.349Z,98056.14
2019-05-16T11:09:01.566Z,98051.02
2019-05-16T11:11:36.788Z,98050.87
2019-05-16T11:14:09.353Z,98050.83
2019-05-16T11:16:41.271Z,98049.60
2019-05-16T11:19:18.289Z,98049.92
2019-05-16T11:21:47.509Z,98052.91
2019-05-16T11:24:19.409Z,98052.11
2019-05-16T11:26:52.585Z,98050.84
2019-05-16T11:29:24.350Z,98042.98
2019-05-16T11:31:57.510Z,98047.16
2019-05-16T11:34:29.723Z,98042.23
2019-05-16T11:37:01.331Z,98042.37
2019-05-16T11:39:33.163Z,98032.69
2019-05-16T11:42:07.753Z,98029.70
2019-05-16T11:44:39.319Z,98029.70
2019-05-16T11:47:11.798Z,98034.50
2019-05-16T11:49:43.516Z,98037.71
2019-05-16T11:52:17.999Z,98038.12
2019-05-16T11:54:49.910Z,98037.00
2019-05-16T11:57:21.514Z,98032.70
2019-05-16T11:59:56.695Z,98034.00
2019-05-16T12:02:28.070Z,98027.47
2019-05-16T12:05:00.017Z,98035.97
2019-05-16T12:07:34.246Z,98033.91
2019-05-16T12:10:07.617Z,98030.45
2019-05-16T12:12:39.488Z,98020.17
2019-05-16T12:15:12.697Z,98025.70
2019-05-16T12:17:59.139Z,98026.00
2019-05-16T12:20:17.740Z,98020.62
2019-05-16T12:22:49.410Z,98024.66
2019-05-16T12:25:21.061Z,98024.52
2019-05-16T12:27:53.697Z,98025.58
2019-05-16T12:30:25.250Z,98027.08
2019-05-16T12:32:58.110Z,98026.47
2019-05-16T12:35:30.286Z,98018.27
2019-05-16T12:38:01.989Z,98013.19
2019-05-16T12:40:33.903Z,98018.53
2019-05-16T12:43:07.793Z,98014.94
2019-05-16T12:45:40.087Z,98016.69
2019-05-16T12:48:11.632Z,98018.06
2019-05-16T12:50:43.370Z,98018.06
2019-05-16T12:53:15.144Z,98017.91
2019-05-16T12:55:47.655Z,98018.61
2019-05-16T12:58:25.404Z,98013.66
2019-05-16T13:00:57.347Z,98016.72
2019-05-16T13:03:28.209Z,98011.58
2019-05-16T13:05:59.941Z,98013.33
2019-05-16T13:08:31.465Z,98006.30
2019-05-16T13:11:06.822Z,98010.75
2019-05-16T13:13:38.028Z,98004.87
2019-05-16T13:16:11.192Z,98004.27
2019-05-16T13:18:42.722Z,98003.39
2019-05-16T13:21:14.526Z,98004.32
2019-05-16T13:23:46.788Z,98003.36
2019-05-16T13:26:18.408Z,97997.58
2019-05-16T13:28:50.261Z,97992.75
2019-05-16T13:31:23.302Z,97997.28
2019-05-16T13:33:56.825Z,97993.86
2019-05-16T13:36:29.001Z,97987.27
2019-05-16T13:39:00.673Z,97990.03
2019-05-16T13:41:34.449Z,97984.78
2019-05-16T13:44:17.778Z,97985.88
2019-05-16T13:46:39.906Z,97976.42
2019-05-16T13:49:12.118Z,97977.52
2019-05-16T13:51:43.977Z,97975.05
2019-05-16T13:54:17.718Z,97974.48
2019-05-16T13:56:51.609Z,97968.23
2019-05-16T13:59:23.270Z,97972.63
2019-05-16T14:01:57.290Z,97970.53
2019-05-16T14:04:29.180Z,97968.72
2019-05-16T14:07:00.880Z,97972.60
2019-05-16T14:09:33.007Z,97973.51
2019-05-16T14:12:06.616Z,97974.08
2019-05-16T14:14:42.286Z,97975.95
2019-05-16T14:17:14.460Z,97967.02
2019-05-16T14:19:47.895Z,97958.78
2019-05-16T14:22:19.112Z,97962.41
2019-05-16T14:24:50.981Z,97955.77
2019-05-16T14:27:23.231Z,97955.77
2019-05-16T14:29:57.750Z,97946.05
2019-05-16T14:32:28.514Z,97960.27
2019-05-16T14:35:00.381Z,97955.06
2019-05-16T14:37:31.972Z,97954.17
2019-05-16T14:40:03.525Z,97953.34
2019-05-16T14:42:38.850Z,97953.28
2019-05-16T14:45:13.556Z,97945.77
2019-05-16T14:47:47.540Z,97949.09
2019-05-16T14:50:18.974Z,97941.70
2019-05-16T14:52:52.439Z,97938.94
2019-05-16T14:55:27.251Z,97942.52
2019-05-16T14:57:57.974Z,97938.39
2019-05-16T15:00:29.938Z,97945.20
2019-05-16T15:03:02.638Z,97940.95
2019-05-16T15:05:41.806Z,97945.20
2019-05-16T15:08:08.705Z,97938.52
2019-05-16T15:10:40.732Z,97937.11
2019-05-16T15:13:12.337Z,97925.89
2019-05-16T15:15:46.114Z,97925.91
2019-05-16T15:18:18.056Z,97928.80
2019-05-16T15:20:50.709Z,97929.50
2019-05-16T15:23:22.611Z,97930.78
2019-05-16T15:25:55.132Z,97923.28
2019-05-16T15:28:30.245Z,97916.16
2019-05-16T15:31:01.106Z,97915.59
2019-05-16T15:33:33.928Z,97903.72
2019-05-16T15:36:08.549Z,97903.86
2019-05-16T15:38:39.189Z,97913.36
2019-05-16T15:41:12.333Z,97903.14
2019-05-16T15:43:44.090Z,97907.50
2019-05-16T15:46:17.359Z,97899.07
2019-05-16T15:48:50.538Z,97907.46
2019-05-16T15:51:23.898Z,97906.05
2019-05-16T15:53:57.189Z,97885.55
2019-05-16T15:56:29.883Z,97897.20
2019-05-16T15:59:02.747Z,97902.88
2019-05-16T16:01:37.624Z,97896.69
2019-05-16T16:04:08.075Z,97895.66
2019-05-16T16:06:43.059Z,97895.66
2019-05-16T16:09:13.828Z,97888.47
2019-05-16T16:11:48.506Z,97894.59
2019-05-16T16:14:19.605Z,97893.27
2019-05-16T16:16:51.208Z,97895.11
2019-05-16T16:19:22.777Z,97890.70
2019-05-16T16:21:57.636Z,97888.38
2019-05-16T16:24:28.774Z,97879.73
2019-05-16T16:27:00.748Z,97877.83
2019-05-16T16:29:33.253Z,97878.58
2019-05-16T16:32:06.485Z,97881.19
2019-05-16T16:34:38.203Z,97885.50
2019-05-16T16:37:09.960Z,97879.46
2019-05-16T16:39:41.652Z,97876.06
2019-05-16T16:42:13.318Z,97871.97
2019-05-16T16:44:47.201Z,97873.72
2019-05-16T16:47:18.720Z,97875.63
2019-05-16T16:49:50.922Z,97871.75
2019-05-16T16:52:22.502Z,97872.64
2019-05-16T16:54:56.862Z,97860.45
2019-05-16T16:57:29.421Z,97862.77
2019-05-16T17:00:01.280Z,97862.82
2019-05-16T17:02:37.113Z,97866.70
2019-05-16T17:05:12.223Z,97860.92
2019-05-16T17:07:43.329Z,97855.06
2019-05-16T17:10:15.400Z,97859.92
2019-05-16T17:12:47.424Z,97856.53
2019-05-16T17:15:19.641Z,97859.06
2019-05-16T17:17:51.441Z,97852.91
2019-05-16T17:20:26.042Z,97855.11
2019-05-16T17:22:57.950Z,97860.31
2019-05-16T17:25:29.668Z,97865.33
2019-05-16T17:28:01.704Z,97869.89
2019-05-16T17:30:33.554Z,97871.48
2019-05-16T17:33:07.768Z,97864.70
2019-05-16T17:35:40.713Z,97871.31
2019-05-16T17:38:12.460Z,97866.31
2019-05-16T17:40:46.425Z,97869.45
2019-05-16T17:43:18.256Z,97868.36
2019-05-16T17:45:51.080Z,97864.89
2019-05-16T17:48:27.228Z,97869.83
2019-05-16T17:50:57.285Z,97865.18
2019-05-16T17:53:29.086Z,97866.66
2019-05-16T17:56:00.896Z,97869.60
2019-05-16T17:58:32.846Z,97867.84
2019-05-16T18:01:06.905Z,97863.14
2019-05-16T18:03:38.974Z,97863.12
2019-05-16T18:06:11.490Z,97860.27
2019-05-16T18:08:43.456Z,97853.59
2019-05-16T18:11:17.605Z,97858.63
2019-05-16T18:13:49.038Z,97861.94
2019-05-16T18:16:20.973Z,97858.94
2019-05-16T18:18:52.785Z,97856.61
2019-05-16T18:21:24.713Z,97859.13
2019-05-16T18:23:56.715Z,97857.50
2019-05-16T18:26:28.196Z,97865.03
2019-05-16T18:28:59.722Z,97859.70
2019-05-16T18:31:32.246Z,97860.11
2019-05-16T18:34:04.332Z,97862.21
2019-05-16T18:36:36.285Z,97861.01
2019-05-16T18:39:09.055Z,97859.90
2019-05-16T18:41:40.925Z,97866.39
2019-05-16T18:44:16.545Z,97864.05
2019-05-16T18:46:48.180Z,97853.77
2019-05-16T18:49:19.984Z,97850.31
2019-05-16T18:51:51.930Z,97857.39
2019-05-16T18:54:26.479Z,97862.28
2019-05-16T18:56:57.814Z,97860.44
2019-05-16T18:59:30.081Z,97859.95
2019-05-16T19:02:01.722Z,97863.81
2019-05-16T19:04:33.488Z,97865.23
2019-05-16T19:07:07.850Z,97864.11
2019-05-16T19:09:39.988Z,97857.64
2019-05-16T19:12:13.547Z,97855.77
2019-05-16T19:14:47.241Z,97854.37
2019-05-16T19:17:24.497Z,97863.69
2019-05-16T19:19:52.783Z,97853.61
2019-05-16T19:22:26.474Z,97858.86
2019-05-16T19:24:58.851Z,97855.31
2019-05-16T19:27:31.108Z,97858.31
2019-05-16T19:30:03.000Z,97862.96
2019-05-16T19:32:39.142Z,97853.18
2019-05-16T19:35:10.328Z,97860.28
2019-05-16T19:37:42.041Z,97860.03
2019-05-16T19:40:17.200Z,97860.36
2019-05-16T19:42:49.209Z,97856.84
2019-05-16T19:45:21.466Z,97863.67
2019-05-16T19:47:52.979Z,97858.23
2019-05-16T19:50:26.656Z,97850.06
2019-05-16T19:52:58.456Z,97864.00
2019-05-16T19:55:30.191Z,97863.48
2019-05-16T19:58:01.845Z,97866.48
2019-05-16T20:00:34.019Z,97860.22
2019-05-16T20:03:07.662Z,97862.46
2019-05-16T20:05:39.351Z,97860.58
2019-05-16T20:08:11.146Z,97857.08
2019-05-16T20:10:43.277Z,97850.25
2019-05-16T20:13:16.598Z,97842.92
2019-05-16T20:15:48.639Z,97856.25
2019-05-16T20:18:21.791Z,97850.81
2019-05-16T20:20:53.452Z,97845.48
2019-05-16T20:23:27.610Z,97848.11
2019-05-16T20:25:58.984Z,97853.34
2019-05-16T20:28:30.714Z,97856.58
2019-05-16T20:31:02.392Z,97858.20
2019-05-16T20:33:34.586Z,97852.20
2019-05-16T20:36:09.473Z,97846.20
2019-05-16T20:38:40.453Z,97850.32
2019-05-16T20:41:12.503Z,97846.53
2019-05-16T20:43:44.079Z,97844.13
2019-05-16T20:46:16.924Z,97842.77
2019-05-16T20:48:48.996Z,97842.48
2019-05-16T20:51:21.042Z,97842.80
2019-05-16T20:53:53.101Z,97845.27
2019-05-16T20:56:26.557Z,97844.19
2019-05-16T20:58:58.081Z,97846.35
2019-05-16T21:01:29.872Z,97842.26
2019-05-16T21:04:01.566Z,97833.52
2019-05-16T21:06:33.212Z,97829.45
2019-05-16T21:09:07.050Z,97830.02
2019-05-16T21:11:39.021Z,97830.28
2019-05-16T21:14:10.575Z,97829.48
2019-05-16T21:16:43.391Z,97827.84
2019-05-16T21:19:16.308Z,97827.84
2019-05-16T21:21:48.016Z,97839.84
2019-05-16T21:24:22.128Z,97839.88
2019-05-16T21:26:53.536Z,97841.54
2019-05-16T21:29:27.663Z,97837.20
2019-05-16T21:31:59.596Z,97834.80
2019-05-16T21:34:31.245Z,97833.72
2019-05-16T21:37:13.883Z,97834.81
2019-05-16T21:39:37.020Z,97836.47
2019-05-16T21:42:09.853Z,97835.13
2019-05-16T21:44:41.615Z,97830.83
2019-05-16T21:47:13.247Z,97824.88
2019-05-16T21:49:47.204Z,97827.09
2019-05-16T21:52:19.053Z,97828.18
2019-05-16T21:54:51.041Z,97824.91
2019-05-16T21:57:23.807Z,97826.24
2019-05-16T21:59:57.127Z,97836.27
2019-05-16T22:02:29.587Z,97827.55
2019-05-16T22:05:01.990Z,97828.64
2019-05-16T22:07:36.528Z,97823.72
2019-05-16T22:10:08.692Z,97818.78
2019-05-16T22:12:42.255Z,97820.17
2019-05-16T22:15:16.932Z,97808.79
2019-05-16T22:17:49.743Z,97814.73
2019-05-16T22:20:21.640Z,97813.92
2019-05-16T22:22:53.470Z,97813.36
2019-05-16T22:25:27.250Z,97815.53
2019-05-16T22:27:59.308Z,97805.75
2019-05-16T22:30:30.995Z,97801.94
2019-05-16T22:33:02.735Z,97799.52
2019-05-16T22:35:34.611Z,97807.46
2019-05-16T22:38:06.590Z,97802.32
2019-05-16T22:40:38.209Z,97789.55
2019-05-16T22:43:10.396Z,97785.73
2019-05-16T22:45:42.668Z,97786.02
2019-05-16T22:48:17.090Z,97787.08
2019-05-16T22:50:48.135Z,97782.76
2019-05-16T22:53:20.278Z,97779.80
2019-05-16T22:55:51.980Z,97776.52
2019-05-16T22:58:26.772Z,97775.16
2019-05-16T23:00:57.964Z,97773.27
2019-05-16T23:03:29.631Z,97773.27
2019-05-16T23:06:01.346Z,97779.25
2019-05-16T23:08:32.932Z,97779.53
2019-05-16T23:11:07.092Z,97775.22
2019-05-16T23:13:38.271Z,97781.73
2019-05-16T23:16:10.650Z,97784.72
2019-05-16T23:18:42.703Z,97783.37
2019-05-16T23:21:16.864Z,97784.16
2019-05-16T23:23:48.038Z,97781.16
2019-05-16T23:26:20.000Z,97776.28
2019-05-16T23:28:52.059Z,97773.03
2019-05-16T23:31:23.832Z,97767.30
2019-05-16T23:33:56.447Z,97778.19
2019-05-16T23:36:28.329Z,97765.13
2019-05-16T23:39:00.282Z,97759.41
2019-05-16T23:41:32.237Z,97758.63
2019-05-16T23:44:07.265Z,97766.78
2019-05-16T23:46:38.176Z,97769.22
2019-05-16T23:49:10.026Z,97764.32
2019-05-16T23:51:41.936Z,97761.59
2019-05-16T23:54:13.758Z,97760.23
2019-05-16T23:56:46.605Z,97762.70
2019-05-16T23:59:18.233Z,97759.44
